sensor_id;sensor_type;location;lat;lon;timestamp;P1;durP1;ratioP1;P2;durP2;ratioP2
65545;SDS011;52177;55.968;37.498;2022-09-19T00:00:29;6.63;;;6.03;;
65545;SDS011;52177;55.968;37.498;2022-09-19T00:01:13;5.45;;;5.05;;
65545;SDS011;52177;55.968;37.498;2022-09-19T00:01:48;6.05;;;5.55;;
65545;SDS011;52177;55.968;37.498;2022-09-19T00:02:21;5.55;;;5.05;;
65545;SDS011;52177;55.968;37.498;2022-09-19T00:02:52;6.85;;;5.03;;
65545;SDS011;52177;55.968;37.498;2022-09-19T00:03:24;6.10;;;5.57;;
65545;SDS011;52177;55.968;37.498;2022-09-19T00:03:55;5.90;;;5.40;;
65545;SDS011;52177;55.968;37.498;2022-09-19T00:04:32;5.78;;;5.38;;
65545;SDS011;52177;55.968;37.498;2022-09-19T00:05:02;6.35;;;5.85;;
65545;SDS011;52177;55.968;37.498;2022-09-19T00:05:37;5.80;;;5.30;;
65545;SDS011;52177;55.968;37.498;2022-09-19T00:06:09;7.10;;;5.50;;
65545;SDS011;52177;55.968;37.498;2022-09-19T00:06:42;6.10;;;5.55;;
65545;SDS011;52177;55.968;37.498;2022-09-19T00:07:13;5.95;;;5.45;;
65545;SDS011;52177;55.968;37.498;2022-09-19T00:07:46;6.05;;;5.55;;
65545;SDS011;52177;55.968;37.498;2022-09-19T00:08:17;6.05;;;5.55;;
65545;SDS011;52177;55.968;37.498;2022-09-19T00:08:48;6.03;;;5.53;;
65545;SDS011;52177;55.968;37.498;2022-09-19T00:09:19;6.10;;;5.38;;
65545;SDS011;52177;55.968;37.498;2022-09-19T00:09:52;5.95;;;5.50;;
65545;SDS011;52177;55.968;37.498;2022-09-19T00:10:22;6.15;;;5.65;;
65545;SDS011;52177;55.968;37.498;2022-09-19T00:10:52;6.10;;;5.60;;
65545;SDS011;52177;55.968;37.498;2022-09-19T00:11:23;6.60;;;6.00;;
65545;SDS011;52177;55.968;37.498;2022-09-19T00:11:54;5.90;;;5.40;;
65545;SDS011;52177;55.968;37.498;2022-09-19T00:12:26;7.78;;;6.25;;
65545;SDS011;52177;55.968;37.498;2022-09-19T00:12:58;5.75;;;5.25;;
65545;SDS011;52177;55.968;37.498;2022-09-19T00:13:29;6.35;;;5.85;;
65545;SDS011;52177;55.968;37.498;2022-09-19T00:14:00;6.00;;;5.50;;
65545;SDS011;52177;55.968;37.498;2022-09-19T00:14:33;5.63;;;5.20;;
65545;SDS011;52177;55.968;37.498;2022-09-19T00:15:04;6.35;;;5.75;;
65545;SDS011;52177;55.968;37.498;2022-09-19T00:15:35;6.30;;;5.80;;
65545;SDS011;52177;55.968;37.498;2022-09-19T00:16:06;5.95;;;5.45;;
65545;SDS011;52177;55.968;37.498;2022-09-19T00:16:37;5.70;;;5.20;;
65545;SDS011;52177;55.968;37.498;2022-09-19T00:17:09;5.88;;;5.28;;
65545;SDS011;52177;55.968;37.498;2022-09-19T00:17:40;5.90;;;5.30;;
65545;SDS011;52177;55.968;37.498;2022-09-19T00:18:10;6.05;;;5.65;;
65545;SDS011;52177;55.968;37.498;2022-09-19T00:18:40;6.03;;;5.50;;
65545;SDS011;52177;55.968;37.498;2022-09-19T00:19:13;5.70;;;5.20;;
65545;SDS011;52177;55.968;37.498;2022-09-19T00:19:45;5.80;;;5.40;;
65545;SDS011;52177;55.968;37.498;2022-09-19T00:20:16;6.35;;;5.80;;
65545;SDS011;52177;55.968;37.498;2022-09-19T00:20:46;6.10;;;5.55;;
65545;SDS011;52177;55.968;37.498;2022-09-19T00:21:25;5.65;;;5.13;;
65545;SDS011;52177;55.968;37.498;2022-09-19T00:22:00;5.70;;;5.30;;
65545;SDS011;52177;55.968;37.498;2022-09-19T00:22:31;6.00;;;5.40;;
65545;SDS011;52177;55.968;37.498;2022-09-19T00:23:02;5.65;;;5.15;;
65545;SDS011;52177;55.968;37.498;2022-09-19T00:24:02;6.32;;;5.68;;
65545;SDS011;52177;55.968;37.498;2022-09-19T00:24:51;6.13;;;5.63;;
65545;SDS011;52177;55.968;37.498;2022-09-19T00:25:21;6.00;;;5.50;;
65545;SDS011;52177;55.968;37.498;2022-09-19T00:26:05;5.53;;;5.13;;
65545;SDS011;52177;55.968;37.498;2022-09-19T00:26:39;5.75;;;5.25;;
65545;SDS011;52177;55.968;37.498;2022-09-19T00:27:10;6.07;;;5.57;;
65545;SDS011;52177;55.968;37.498;2022-09-19T00:27:41;6.22;;;5.72;;
65545;SDS011;52177;55.968;37.498;2022-09-19T00:28:14;5.82;;;5.30;;
65545;SDS011;52177;55.968;37.498;2022-09-19T00:28:45;5.88;;;5.38;;
65545;SDS011;52177;55.968;37.498;2022-09-19T00:29:17;6.07;;;5.40;;
65545;SDS011;52177;55.968;37.498;2022-09-19T00:29:47;5.60;;;5.15;;
65545;SDS011;52177;55.968;37.498;2022-09-19T00:30:18;5.53;;;5.10;;
65545;SDS011;52177;55.968;37.498;2022-09-19T00:30:48;6.15;;;5.65;;
65545;SDS011;52177;55.968;37.498;2022-09-19T00:31:19;6.13;;;5.63;;
65545;SDS011;52177;55.968;37.498;2022-09-19T00:31:51;5.85;;;5.35;;
65545;SDS011;52177;55.968;37.498;2022-09-19T00:32:23;6.07;;;5.55;;
65545;SDS011;52177;55.968;37.498;2022-09-19T00:32:56;5.90;;;5.40;;
65545;SDS011;52177;55.968;37.498;2022-09-19T00:33:29;6.50;;;5.90;;
65545;SDS011;52177;55.968;37.498;2022-09-19T00:34:01;6.60;;;5.90;;
65545;SDS011;52177;55.968;37.498;2022-09-19T00:34:36;6.40;;;5.80;;
65545;SDS011;52177;55.968;37.498;2022-09-19T00:35:07;5.80;;;5.32;;
65545;SDS011;52177;55.968;37.498;2022-09-19T00:35:38;5.63;;;5.10;;
65545;SDS011;52177;55.968;37.498;2022-09-19T00:36:08;6.00;;;5.50;;
65545;SDS011;52177;55.968;37.498;2022-09-19T00:36:38;5.72;;;5.28;;
65545;SDS011;52177;55.968;37.498;2022-09-19T00:37:10;6.15;;;5.55;;
65545;SDS011;52177;55.968;37.498;2022-09-19T00:37:41;5.93;;;5.22;;
65545;SDS011;52177;55.968;37.498;2022-09-19T00:38:11;5.78;;;5.30;;
65545;SDS011;52177;55.968;37.498;2022-09-19T00:38:42;6.18;;;5.30;;
65545;SDS011;52177;55.968;37.498;2022-09-19T00:39:15;5.70;;;5.20;;
65545;SDS011;52177;55.968;37.498;2022-09-19T00:39:47;6.22;;;5.72;;
65545;SDS011;52177;55.968;37.498;2022-09-19T00:40:17;5.88;;;5.47;;
65545;SDS011;52177;55.968;37.498;2022-09-19T00:40:48;5.38;;;4.97;;
65545;SDS011;52177;55.968;37.498;2022-09-19T00:41:20;5.90;;;5.40;;
65545;SDS011;52177;55.968;37.498;2022-09-19T00:41:55;6.20;;;5.60;;
65545;SDS011;52177;55.968;37.498;2022-09-19T00:42:26;7.40;;;5.07;;
65545;SDS011;52177;55.968;37.498;2022-09-19T00:42:56;6.13;;;5.63;;
65545;SDS011;52177;55.968;37.498;2022-09-19T00:43:42;5.53;;;5.07;;
65545;SDS011;52177;55.968;37.498;2022-09-19T00:44:53;5.70;;;5.22;;
65545;SDS011;52177;55.968;37.498;2022-09-19T00:45:28;5.53;;;5.03;;
65545;SDS011;52177;55.968;37.498;2022-09-19T00:46:00;5.97;;;5.20;;
65545;SDS011;52177;55.968;37.498;2022-09-19T00:46:31;5.93;;;5.43;;
65545;SDS011;52177;55.968;37.498;2022-09-19T00:47:05;5.82;;;5.18;;
65545;SDS011;52177;55.968;37.498;2022-09-19T00:47:45;5.40;;;5.00;;
65545;SDS011;52177;55.968;37.498;2022-09-19T00:48:18;6.10;;;5.50;;
65545;SDS011;52177;55.968;37.498;2022-09-19T00:49:02;5.35;;;4.85;;
65545;SDS011;52177;55.968;37.498;2022-09-19T00:49:49;5.68;;;5.18;;
65545;SDS011;52177;55.968;37.498;2022-09-19T00:50:23;5.20;;;4.80;;
65545;SDS011;52177;55.968;37.498;2022-09-19T00:50:57;5.07;;;4.55;;
65545;SDS011;52177;55.968;37.498;2022-09-19T00:51:44;5.80;;;5.22;;
65545;SDS011;52177;55.968;37.498;2022-09-19T00:52:18;5.50;;;5.00;;
65545;SDS011;52177;55.968;37.498;2022-09-19T00:53:29;5.10;;;4.70;;
65545;SDS011;52177;55.968;37.498;2022-09-19T00:54:02;5.35;;;4.85;;
65545;SDS011;52177;55.968;37.498;2022-09-19T00:54:36;5.40;;;4.97;;
65545;SDS011;52177;55.968;37.498;2022-09-19T00:55:10;5.00;;;4.60;;
65545;SDS011;52177;55.968;37.498;2022-09-19T00:55:41;5.45;;;5.05;;
65545;SDS011;52177;55.968;37.498;2022-09-19T00:56:15;5.13;;;4.70;;
65545;SDS011;52177;55.968;37.498;2022-09-19T00:56:49;5.60;;;5.10;;
65545;SDS011;52177;55.968;37.498;2022-09-19T00:57:21;5.45;;;4.95;;
65545;SDS011;52177;55.968;37.498;2022-09-19T00:58:57;5.53;;;4.80;;
65545;SDS011;52177;55.968;37.498;2022-09-19T00:59:29;5.32;;;4.82;;
65545;SDS011;52177;55.968;37.498;2022-09-19T01:00:03;4.93;;;4.53;;
65545;SDS011;52177;55.968;37.498;2022-09-19T01:00:34;6.70;;;4.93;;
65545;SDS011;52177;55.968;37.498;2022-09-19T01:01:05;5.22;;;4.72;;
65545;SDS011;52177;55.968;37.498;2022-09-19T01:01:36;5.50;;;5.00;;
65545;SDS011;52177;55.968;37.498;2022-09-19T01:02:07;5.60;;;5.03;;
65545;SDS011;52177;55.968;37.498;2022-09-19T01:02:39;5.40;;;5.00;;
65545;SDS011;52177;55.968;37.498;2022-09-19T01:03:11;5.30;;;4.80;;
65545;SDS011;52177;55.968;37.498;2022-09-19T01:03:42;5.32;;;4.93;;
65545;SDS011;52177;55.968;37.498;2022-09-19T01:04:17;5.15;;;4.65;;
65545;SDS011;52177;55.968;37.498;2022-09-19T01:04:49;5.07;;;4.68;;
65545;SDS011;52177;55.968;37.498;2022-09-19T01:05:22;5.18;;;4.78;;
65545;SDS011;52177;55.968;37.498;2022-09-19T01:06:17;5.30;;;4.90;;
65545;SDS011;52177;55.968;37.498;2022-09-19T01:08:22;4.85;;;4.45;;
65545;SDS011;52177;55.968;37.498;2022-09-19T01:10:14;8.82;;;4.88;;
65545;SDS011;52177;55.968;37.498;2022-09-19T01:13:18;5.35;;;4.85;;
65545;SDS011;52177;55.968;37.498;2022-09-19T01:14:44;5.35;;;4.95;;
65545;SDS011;52177;55.968;37.498;2022-09-19T01:15:43;5.75;;;4.82;;
65545;SDS011;52177;55.968;37.498;2022-09-19T01:16:25;4.88;;;4.47;;
65545;SDS011;52177;55.968;37.498;2022-09-19T01:17:12;6.63;;;5.15;;
65545;SDS011;52177;55.968;37.498;2022-09-19T01:17:53;5.70;;;5.20;;
65545;SDS011;52177;55.968;37.498;2022-09-19T01:18:32;6.13;;;5.57;;
65545;SDS011;52177;55.968;37.498;2022-09-19T01:19:51;5.80;;;5.30;;
65545;SDS011;52177;55.968;37.498;2022-09-19T01:21:29;5.85;;;5.25;;
65545;SDS011;52177;55.968;37.498;2022-09-19T01:23:44;5.57;;;5.07;;
65545;SDS011;52177;55.968;37.498;2022-09-19T01:27:09;5.88;;;5.20;;
65545;SDS011;52177;55.968;37.498;2022-09-19T01:29:38;6.45;;;5.88;;
65545;SDS011;52177;55.968;37.498;2022-09-19T01:29:47;6.97;;;6.38;;
65545;SDS011;52177;55.968;37.498;2022-09-19T01:30:38;6.47;;;5.88;;
65545;SDS011;52177;55.968;37.498;2022-09-19T01:31:15;7.75;;;6.15;;
65545;SDS011;52177;55.968;37.498;2022-09-19T01:31:52;6.72;;;6.13;;
65545;SDS011;52177;55.968;37.498;2022-09-19T01:32:37;6.88;;;6.25;;
65545;SDS011;52177;55.968;37.498;2022-09-19T01:33:13;7.25;;;6.55;;
65545;SDS011;52177;55.968;37.498;2022-09-19T01:33:51;7.20;;;6.50;;
65545;SDS011;52177;55.968;37.498;2022-09-19T01:34:32;7.07;;;6.30;;
65545;SDS011;52177;55.968;37.498;2022-09-19T01:35:09;7.53;;;6.93;;
65545;SDS011;52177;55.968;37.498;2022-09-19T01:35:45;7.25;;;6.63;;
65545;SDS011;52177;55.968;37.498;2022-09-19T01:36:22;7.15;;;6.53;;
65545;SDS011;52177;55.968;37.498;2022-09-19T01:37:07;7.22;;;6.63;;
65545;SDS011;52177;55.968;37.498;2022-09-19T01:37:43;7.70;;;7.00;;
65545;SDS011;52177;55.968;37.498;2022-09-19T01:38:21;7.40;;;6.72;;
65545;SDS011;52177;55.968;37.498;2022-09-19T01:38:54;7.43;;;6.72;;
65545;SDS011;52177;55.968;37.498;2022-09-19T01:39:27;7.43;;;6.80;;
65545;SDS011;52177;55.968;37.498;2022-09-19T01:40:01;7.45;;;6.72;;
65545;SDS011;52177;55.968;37.498;2022-09-19T01:40:35;7.88;;;7.18;;
65545;SDS011;52177;55.968;37.498;2022-09-19T01:41:07;7.57;;;6.97;;
65545;SDS011;52177;55.968;37.498;2022-09-19T01:41:38;7.47;;;6.88;;
65545;SDS011;52177;55.968;37.498;2022-09-19T01:42:11;7.88;;;7.18;;
65545;SDS011;52177;55.968;37.498;2022-09-19T01:42:50;7.70;;;7.00;;
65545;SDS011;52177;55.968;37.498;2022-09-19T01:43:27;7.30;;;6.70;;
65545;SDS011;52177;55.968;37.498;2022-09-19T01:43:58;7.75;;;7.00;;
65545;SDS011;52177;55.968;37.498;2022-09-19T01:44:35;7.53;;;6.93;;
65545;SDS011;52177;55.968;37.498;2022-09-19T01:45:08;7.75;;;7.05;;
65545;SDS011;52177;55.968;37.498;2022-09-19T01:45:40;8.13;;;7.10;;
65545;SDS011;52177;55.968;37.498;2022-09-19T01:46:14;7.63;;;6.93;;
65545;SDS011;52177;55.968;37.498;2022-09-19T01:48:25;8.65;;;7.80;;
65545;SDS011;52177;55.968;37.498;2022-09-19T01:49:11;9.50;;;7.53;;
65545;SDS011;52177;55.968;37.498;2022-09-19T01:49:50;8.70;;;7.90;;
65545;SDS011;52177;55.968;37.498;2022-09-19T01:51:44;8.82;;;7.93;;
65545;SDS011;52177;55.968;37.498;2022-09-19T01:52:35;8.38;;;7.57;;
65545;SDS011;52177;55.968;37.498;2022-09-19T01:53:56;9.13;;;8.32;;
65545;SDS011;52177;55.968;37.498;2022-09-19T01:54:50;8.40;;;7.70;;
65545;SDS011;52177;55.968;37.498;2022-09-19T01:59:57;10.30;;;9.32;;
65545;SDS011;52177;55.968;37.498;2022-09-19T02:00:38;11.38;;;10.35;;
65545;SDS011;52177;55.968;37.498;2022-09-19T02:01:36;10.63;;;9.73;;
65545;SDS011;52177;55.968;37.498;2022-09-19T02:03:23;11.05;;;9.95;;
65545;SDS011;52177;55.968;37.498;2022-09-19T02:04:11;11.27;;;10.27;;
65545;SDS011;52177;55.968;37.498;2022-09-19T02:04:57;10.55;;;9.52;;
65545;SDS011;52177;55.968;37.498;2022-09-19T02:05:52;10.63;;;9.63;;
65545;SDS011;52177;55.968;37.498;2022-09-19T02:06:42;11.65;;;10.35;;
65545;SDS011;52177;55.968;37.498;2022-09-19T02:07:59;10.73;;;9.85;;
65545;SDS011;52177;55.968;37.498;2022-09-19T02:11:24;10.52;;;9.63;;
65545;SDS011;52177;55.968;37.498;2022-09-19T02:11:57;11.35;;;10.20;;
65545;SDS011;52177;55.968;37.498;2022-09-19T02:12:32;11.00;;;9.93;;
65545;SDS011;52177;55.968;37.498;2022-09-19T02:13:06;11.68;;;10.60;;
65545;SDS011;52177;55.968;37.498;2022-09-19T02:13:40;11.82;;;10.82;;
65545;SDS011;52177;55.968;37.498;2022-09-19T02:14:16;12.05;;;10.85;;
65545;SDS011;52177;55.968;37.498;2022-09-19T02:14:49;11.90;;;10.70;;
65545;SDS011;52177;55.968;37.498;2022-09-19T02:15:25;12.40;;;11.20;;
65545;SDS011;52177;55.968;37.498;2022-09-19T02:16:07;11.45;;;10.45;;
65545;SDS011;52177;55.968;37.498;2022-09-19T02:16:43;12.00;;;10.90;;
65545;SDS011;52177;55.968;37.498;2022-09-19T02:17:17;14.00;;;11.10;;
65545;SDS011;52177;55.968;37.498;2022-09-19T02:17:54;12.43;;;11.30;;
65545;SDS011;52177;55.968;37.498;2022-09-19T02:18:38;12.75;;;11.02;;
65545;SDS011;52177;55.968;37.498;2022-09-19T02:19:12;11.90;;;10.80;;
65545;SDS011;52177;55.968;37.498;2022-09-19T02:19:49;11.80;;;10.80;;
65545;SDS011;52177;55.968;37.498;2022-09-19T02:20:28;12.07;;;11.07;;
65545;SDS011;52177;55.968;37.498;2022-09-19T02:21:05;12.57;;;11.38;;
65545;SDS011;52177;55.968;37.498;2022-09-19T02:21:43;12.90;;;11.57;;
65545;SDS011;52177;55.968;37.498;2022-09-19T02:22:30;12.40;;;11.30;;
65545;SDS011;52177;55.968;37.498;2022-09-19T02:23:04;11.43;;;10.52;;
65545;SDS011;52177;55.968;37.498;2022-09-19T02:23:39;12.63;;;11.25;;
65545;SDS011;52177;55.968;37.498;2022-09-19T02:24:26;12.43;;;11.15;;
65545;SDS011;52177;55.968;37.498;2022-09-19T02:25:01;12.00;;;11.00;;
65545;SDS011;52177;55.968;37.498;2022-09-19T02:25:35;12.00;;;10.93;;
65545;SDS011;52177;55.968;37.498;2022-09-19T02:26:05;11.85;;;10.88;;
65545;SDS011;52177;55.968;37.498;2022-09-19T02:26:39;12.38;;;11.30;;
65545;SDS011;52177;55.968;37.498;2022-09-19T02:27:16;12.70;;;11.50;;
65545;SDS011;52177;55.968;37.498;2022-09-19T02:27:52;12.13;;;11.10;;
65545;SDS011;52177;55.968;37.498;2022-09-19T02:28:29;12.07;;;10.98;;
65545;SDS011;52177;55.968;37.498;2022-09-19T02:29:09;12.30;;;11.18;;
65545;SDS011;52177;55.968;37.498;2022-09-19T02:29:44;13.30;;;12.00;;
65545;SDS011;52177;55.968;37.498;2022-09-19T02:30:18;12.45;;;11.35;;
65545;SDS011;52177;55.968;37.498;2022-09-19T02:30:52;12.38;;;11.32;;
65545;SDS011;52177;55.968;37.498;2022-09-19T02:31:22;12.07;;;10.93;;
65545;SDS011;52177;55.968;37.498;2022-09-19T02:31:57;12.50;;;11.35;;
65545;SDS011;52177;55.968;37.498;2022-09-19T02:32:27;12.50;;;11.32;;
65545;SDS011;52177;55.968;37.498;2022-09-19T02:32:57;12.95;;;11.80;;
65545;SDS011;52177;55.968;37.498;2022-09-19T02:33:28;12.32;;;11.13;;
65545;SDS011;52177;55.968;37.498;2022-09-19T02:34:00;12.30;;;11.18;;
65545;SDS011;52177;55.968;37.498;2022-09-19T02:34:33;13.35;;;11.88;;
65545;SDS011;52177;55.968;37.498;2022-09-19T02:35:04;11.95;;;10.95;;
65545;SDS011;52177;55.968;37.498;2022-09-19T02:37:07;12.63;;;11.52;;
65545;SDS011;52177;55.968;37.498;2022-09-19T02:37:54;12.77;;;11.48;;
65545;SDS011;52177;55.968;37.498;2022-09-19T02:38:47;12.48;;;11.18;;
65545;SDS011;52177;55.968;37.498;2022-09-19T02:39:47;11.52;;;10.52;;
65545;SDS011;52177;55.968;37.498;2022-09-19T02:41:01;12.13;;;10.93;;
65545;SDS011;52177;55.968;37.498;2022-09-19T02:42:01;11.02;;;10.13;;
65545;SDS011;52177;55.968;37.498;2022-09-19T02:43:09;11.43;;;10.18;;
65545;SDS011;52177;55.968;37.498;2022-09-19T02:44:01;11.40;;;10.40;;
65545;SDS011;52177;55.968;37.498;2022-09-19T02:45:50;11.38;;;10.15;;
65545;SDS011;52177;55.968;37.498;2022-09-19T02:48:42;11.52;;;10.43;;
65545;SDS011;52177;55.968;37.498;2022-09-19T02:50:28;10.95;;;10.02;;
65545;SDS011;52177;55.968;37.498;2022-09-19T02:51:05;12.75;;;10.70;;
65545;SDS011;52177;55.968;37.498;2022-09-19T02:51:45;11.23;;;10.20;;
65545;SDS011;52177;55.968;37.498;2022-09-19T02:52:28;11.73;;;10.48;;
65545;SDS011;52177;55.968;37.498;2022-09-19T02:53:01;11.38;;;10.38;;
65545;SDS011;52177;55.968;37.498;2022-09-19T02:53:40;12.07;;;10.98;;
65545;SDS011;52177;55.968;37.498;2022-09-19T02:54:22;12.27;;;11.02;;
65545;SDS011;52177;55.968;37.498;2022-09-19T02:54:59;11.88;;;10.77;;
65545;SDS011;52177;55.968;37.498;2022-09-19T02:55:37;11.75;;;10.52;;
65545;SDS011;52177;55.968;37.498;2022-09-19T02:56:16;13.07;;;10.63;;
65545;SDS011;52177;55.968;37.498;2022-09-19T02:56:48;11.23;;;10.10;;
65545;SDS011;52177;55.968;37.498;2022-09-19T02:57:21;11.13;;;10.23;;
65545;SDS011;52177;55.968;37.498;2022-09-19T02:57:55;11.05;;;9.80;;
65545;SDS011;52177;55.968;37.498;2022-09-19T02:58:35;11.52;;;10.35;;
65545;SDS011;52177;55.968;37.498;2022-09-19T02:59:18;11.50;;;10.40;;
65545;SDS011;52177;55.968;37.498;2022-09-19T02:59:53;10.25;;;9.35;;
65545;SDS011;52177;55.968;37.498;2022-09-19T03:00:31;11.32;;;9.70;;
65545;SDS011;52177;55.968;37.498;2022-09-19T03:01:06;10.77;;;9.77;;
65545;SDS011;52177;55.968;37.498;2022-09-19T03:01:44;12.77;;;9.55;;
65545;SDS011;52177;55.968;37.498;2022-09-19T03:02:23;11.18;;;10.18;;
65545;SDS011;52177;55.968;37.498;2022-09-19T03:03:05;10.68;;;9.60;;
65545;SDS011;52177;55.968;37.498;2022-09-19T03:04:01;11.95;;;9.65;;
65545;SDS011;52177;55.968;37.498;2022-09-19T03:04:47;11.55;;;9.50;;
65545;SDS011;52177;55.968;37.498;2022-09-19T03:05:24;9.88;;;8.88;;
65545;SDS011;52177;55.968;37.498;2022-09-19T03:05:57;10.20;;;9.20;;
65545;SDS011;52177;55.968;37.498;2022-09-19T03:06:33;11.32;;;9.40;;
65545;SDS011;52177;55.968;37.498;2022-09-19T03:07:58;9.30;;;8.40;;
65545;SDS011;52177;55.968;37.498;2022-09-19T03:08:32;9.80;;;8.82;;
65545;SDS011;52177;55.968;37.498;2022-09-19T03:09:06;9.73;;;8.82;;
65545;SDS011;52177;55.968;37.498;2022-09-19T03:09:39;9.60;;;8.60;;
65545;SDS011;52177;55.968;37.498;2022-09-19T03:10:21;11.73;;;8.68;;
65545;SDS011;52177;55.968;37.498;2022-09-19T03:10:56;9.50;;;8.52;;
65545;SDS011;52177;55.968;37.498;2022-09-19T03:11:29;10.02;;;9.13;;
65545;SDS011;52177;55.968;37.498;2022-09-19T03:12:07;9.73;;;8.45;;
65545;SDS011;52177;55.968;37.498;2022-09-19T03:12:52;9.05;;;8.13;;
65545;SDS011;52177;55.968;37.498;2022-09-19T03:13:26;8.85;;;8.05;;
65545;SDS011;52177;55.968;37.498;2022-09-19T03:13:57;9.45;;;8.40;;
65545;SDS011;52177;55.968;37.498;2022-09-19T03:14:28;9.20;;;8.32;;
65545;SDS011;52177;55.968;37.498;2022-09-19T03:15:00;9.35;;;8.35;;
65545;SDS011;52177;55.968;37.498;2022-09-19T03:16:11;9.48;;;8.40;;
65545;SDS011;52177;55.968;37.498;2022-09-19T03:16:45;8.30;;;7.55;;
65545;SDS011;52177;55.968;37.498;2022-09-19T03:17:18;9.38;;;7.68;;
65545;SDS011;52177;55.968;37.498;2022-09-19T03:17:50;9.88;;;7.60;;
65545;SDS011;52177;55.968;37.498;2022-09-19T03:18:23;8.10;;;7.30;;
65545;SDS011;52177;55.968;37.498;2022-09-19T03:18:56;8.38;;;7.35;;
65545;SDS011;52177;55.968;37.498;2022-09-19T03:19:27;10.32;;;7.60;;
65545;SDS011;52177;55.968;37.498;2022-09-19T03:20:00;8.43;;;7.60;;
65545;SDS011;52177;55.968;37.498;2022-09-19T03:20:34;9.57;;;7.65;;
65545;SDS011;52177;55.968;37.498;2022-09-19T03:21:09;9.32;;;8.02;;
65545;SDS011;52177;55.968;37.498;2022-09-19T03:21:40;9.55;;;7.55;;
65545;SDS011;52177;55.968;37.498;2022-09-19T03:22:11;9.05;;;7.15;;
65545;SDS011;52177;55.968;37.498;2022-09-19T03:22:42;9.05;;;7.07;;
65545;SDS011;52177;55.968;37.498;2022-09-19T03:23:15;7.35;;;6.65;;
65545;SDS011;52177;55.968;37.498;2022-09-19T03:23:52;7.45;;;6.75;;
65545;SDS011;52177;55.968;37.498;2022-09-19T03:24:28;7.93;;;7.22;;
65545;SDS011;52177;55.968;37.498;2022-09-19T03:24:59;7.50;;;6.90;;
65545;SDS011;52177;55.968;37.498;2022-09-19T03:25:32;7.95;;;6.63;;
65545;SDS011;52177;55.968;37.498;2022-09-19T03:26:02;8.98;;;7.15;;
65545;SDS011;52177;55.968;37.498;2022-09-19T03:26:35;10.00;;;7.63;;
65545;SDS011;52177;55.968;37.498;2022-09-19T03:27:06;7.70;;;7.00;;
65545;SDS011;52177;55.968;37.498;2022-09-19T03:27:39;8.85;;;6.85;;
65545;SDS011;52177;55.968;37.498;2022-09-19T03:28:09;7.53;;;6.72;;
65545;SDS011;52177;55.968;37.498;2022-09-19T03:28:40;7.28;;;6.47;;
65545;SDS011;52177;55.968;37.498;2022-09-19T03:29:10;9.60;;;7.13;;
65545;SDS011;52177;55.968;37.498;2022-09-19T03:29:41;8.65;;;7.05;;
65545;SDS011;52177;55.968;37.498;2022-09-19T03:30:12;8.23;;;6.80;;
65545;SDS011;52177;55.968;37.498;2022-09-19T03:30:43;9.60;;;6.55;;
65545;SDS011;52177;55.968;37.498;2022-09-19T03:31:14;6.88;;;6.28;;
65545;SDS011;52177;55.968;37.498;2022-09-19T03:31:44;6.93;;;6.40;;
65545;SDS011;52177;55.968;37.498;2022-09-19T03:32:15;8.25;;;6.35;;
65545;SDS011;52177;55.968;37.498;2022-09-19T03:32:45;8.25;;;6.10;;
65545;SDS011;52177;55.968;37.498;2022-09-19T03:33:16;6.70;;;6.10;;
65545;SDS011;52177;55.968;37.498;2022-09-19T03:33:47;8.20;;;6.63;;
65545;SDS011;52177;55.968;37.498;2022-09-19T03:34:18;6.97;;;5.97;;
65545;SDS011;52177;55.968;37.498;2022-09-19T03:34:50;7.00;;;6.40;;
65545;SDS011;52177;55.968;37.498;2022-09-19T03:35:20;9.40;;;6.78;;
65545;SDS011;52177;55.968;37.498;2022-09-19T03:35:52;7.22;;;6.38;;
65545;SDS011;52177;55.968;37.498;2022-09-19T03:36:26;7.10;;;6.40;;
65545;SDS011;52177;55.968;37.498;2022-09-19T03:36:59;6.85;;;6.22;;
65545;SDS011;52177;55.968;37.498;2022-09-19T03:37:30;7.45;;;6.65;;
65545;SDS011;52177;55.968;37.498;2022-09-19T03:38:02;9.45;;;6.93;;
65545;SDS011;52177;55.968;37.498;2022-09-19T03:38:32;7.07;;;6.35;;
65545;SDS011;52177;55.968;37.498;2022-09-19T03:39:04;7.10;;;6.40;;
65545;SDS011;52177;55.968;37.498;2022-09-19T03:39:34;7.03;;;6.32;;
65545;SDS011;52177;55.968;37.498;2022-09-19T03:40:05;6.85;;;6.18;;
65545;SDS011;52177;55.968;37.498;2022-09-19T03:40:36;7.28;;;6.57;;
65545;SDS011;52177;55.968;37.498;2022-09-19T03:41:07;6.95;;;6.05;;
65545;SDS011;52177;55.968;37.498;2022-09-19T03:41:38;8.38;;;6.32;;
65545;SDS011;52177;55.968;37.498;2022-09-19T03:42:08;6.93;;;6.28;;
65545;SDS011;52177;55.968;37.498;2022-09-19T03:42:39;6.90;;;6.00;;
65545;SDS011;52177;55.968;37.498;2022-09-19T03:43:09;7.50;;;6.25;;
65545;SDS011;52177;55.968;37.498;2022-09-19T03:43:41;9.68;;;6.45;;
65545;SDS011;52177;55.968;37.498;2022-09-19T03:44:14;7.18;;;5.95;;
65545;SDS011;52177;55.968;37.498;2022-09-19T03:44:47;9.60;;;6.10;;
65545;SDS011;52177;55.968;37.498;2022-09-19T03:45:17;7.10;;;6.03;;
65545;SDS011;52177;55.968;37.498;2022-09-19T03:45:47;6.30;;;5.70;;
65545;SDS011;52177;55.968;37.498;2022-09-19T03:46:18;7.00;;;6.30;;
65545;SDS011;52177;55.968;37.498;2022-09-19T03:46:50;6.40;;;5.80;;
65545;SDS011;52177;55.968;37.498;2022-09-19T03:47:20;6.60;;;6.00;;
65545;SDS011;52177;55.968;37.498;2022-09-19T03:47:51;7.60;;;5.90;;
65545;SDS011;52177;55.968;37.498;2022-09-19T03:48:23;6.18;;;5.35;;
65545;SDS011;52177;55.968;37.498;2022-09-19T03:48:53;6.50;;;5.90;;
65545;SDS011;52177;55.968;37.498;2022-09-19T03:49:24;7.40;;;5.80;;
65545;SDS011;52177;55.968;37.498;2022-09-19T03:49:54;5.80;;;5.30;;
65545;SDS011;52177;55.968;37.498;2022-09-19T03:50:24;6.18;;;5.57;;
65545;SDS011;52177;55.968;37.498;2022-09-19T03:50:55;6.35;;;5.70;;
65545;SDS011;52177;55.968;37.498;2022-09-19T03:51:25;7.53;;;5.65;;
65545;SDS011;52177;55.968;37.498;2022-09-19T03:51:56;6.38;;;5.78;;
65545;SDS011;52177;55.968;37.498;2022-09-19T03:52:29;7.18;;;5.85;;
65545;SDS011;52177;55.968;37.498;2022-09-19T03:53:01;7.28;;;6.15;;
65545;SDS011;52177;55.968;37.498;2022-09-19T03:53:31;5.90;;;5.32;;
65545;SDS011;52177;55.968;37.498;2022-09-19T03:54:02;6.25;;;5.30;;
65545;SDS011;52177;55.968;37.498;2022-09-19T03:54:32;8.18;;;5.53;;
65545;SDS011;52177;55.968;37.498;2022-09-19T03:55:04;8.25;;;5.60;;
65545;SDS011;52177;55.968;37.498;2022-09-19T03:55:35;6.05;;;5.45;;
65545;SDS011;52177;55.968;37.498;2022-09-19T03:56:07;5.35;;;4.85;;
65545;SDS011;52177;55.968;37.498;2022-09-19T03:56:40;5.57;;;5.00;;
65545;SDS011;52177;55.968;37.498;2022-09-19T03:57:10;5.68;;;5.20;;
65545;SDS011;52177;55.968;37.498;2022-09-19T03:57:42;6.15;;;5.53;;
65545;SDS011;52177;55.968;37.498;2022-09-19T03:58:13;6.10;;;4.97;;
65545;SDS011;52177;55.968;37.498;2022-09-19T03:58:43;5.60;;;5.07;;
65545;SDS011;52177;55.968;37.498;2022-09-19T03:59:14;5.82;;;5.32;;
65545;SDS011;52177;55.968;37.498;2022-09-19T03:59:46;5.22;;;4.80;;
65545;SDS011;52177;55.968;37.498;2022-09-19T04:00:17;5.38;;;4.70;;
65545;SDS011;52177;55.968;37.498;2022-09-19T04:00:47;7.72;;;4.75;;
65545;SDS011;52177;55.968;37.498;2022-09-19T04:01:17;6.45;;;4.60;;
65545;SDS011;52177;55.968;37.498;2022-09-19T04:01:48;11.95;;;4.80;;
65545;SDS011;52177;55.968;37.498;2022-09-19T04:02:19;5.18;;;4.68;;
65545;SDS011;52177;55.968;37.498;2022-09-19T04:02:49;7.30;;;4.10;;
65545;SDS011;52177;55.968;37.498;2022-09-19T04:03:19;6.80;;;4.30;;